createdAt,value
2023-08-17T00:07:36.868Z,23.72
2023-08-17T00:22:38.577Z,22.08
2023-08-17T00:37:40.341Z,22.44
2023-08-17T00:52:43.293Z,20.14
2023-08-17T01:07:45.012Z,22.19
2023-08-17T01:22:50.078Z,22.74
2023-08-17T01:37:56.803Z,22.20
2023-08-17T01:52:58.551Z,22.83
2023-08-17T02:08:00.252Z,22.95
2023-08-17T02:23:02.395Z,21.42
2023-08-17T02:38:04.286Z,21.29
2023-08-17T02:53:06.078Z,21.95
2023-08-17T03:08:07.762Z,20.31
2023-08-17T03:23:09.730Z,20.91
2023-08-17T03:38:11.425Z,20.35
2023-08-17T03:53:13.164Z,20.04
2023-08-17T04:08:14.877Z,19.85
2023-08-17T04:23:16.553Z,21.25
2023-08-17T04:38:18.342Z,21.57
2023-08-17T04:53:20.116Z,21.19
2023-08-17T05:08:23.316Z,22.27
2023-08-17T05:23:25.106Z,23.70
2023-08-17T05:38:26.924Z,22.51
2023-08-17T05:53:28.616Z,22.01
2023-08-17T06:08:31.116Z,25.00
2023-08-17T06:23:32.831Z,25.40
2023-08-17T06:38:34.604Z,24.23
2023-08-17T06:53:36.318Z,25.10
2023-08-17T07:08:38.064Z,25.41
2023-08-17T07:23:39.854Z,25.17
2023-08-17T07:38:41.576Z,25.90
2023-08-17T07:53:43.326Z,26.65
2023-08-17T08:08:44.988Z,25.16
2023-08-17T08:23:46.690Z,27.11
2023-08-17T08:38:48.358Z,25.79
2023-08-17T08:53:57.030Z,26.91
2023-08-17T09:08:59.826Z,26.05
2023-08-17T09:24:01.561Z,27.20
2023-08-17T09:39:04.543Z,27.68
2023-08-17T09:54:06.906Z,26.73
2023-08-17T10:09:13.013Z,26.91
2023-08-17T10:24:15.099Z,28.68
2023-08-17T10:55:45.757Z,29.52
2023-08-17T11:11:05.511Z,30.20
2023-08-17T11:26:08.850Z,29.31
2023-08-17T11:41:18.579Z,30.75
2023-08-17T11:56:21.566Z,29.69
2023-08-17T12:11:26.277Z,30.27
2023-08-17T12:26:28.815Z,29.48
2023-08-17T12:41:30.682Z,29.74
2023-08-17T12:56:32.391Z,28.26
2023-08-17T13:11:34.063Z,28.72
2023-08-17T13:26:35.869Z,29.16
2023-08-17T13:41:37.638Z,28.10
2023-08-17T13:56:39.298Z,28.76
2023-08-17T14:11:41.004Z,29.31
2023-08-17T14:26:42.868Z,28.41
2023-08-17T14:41:46.763Z,29.23
2023-08-17T14:56:48.825Z,29.03
2023-08-17T15:11:51.979Z,27.70
2023-08-17T15:26:53.679Z,27.01
2023-08-17T15:41:55.514Z,27.74
2023-08-17T15:56:57.326Z,26.55
2023-08-17T16:11:59.135Z,28.55
2023-08-17T16:27:02.276Z,27.59
2023-08-17T16:42:04.073Z,28.03
2023-08-17T16:57:05.906Z,27.83
2023-08-17T17:12:07.729Z,27.59
2023-08-17T17:27:09.488Z,27.85
2023-08-17T17:42:11.188Z,26.33
2023-08-17T17:57:12.863Z,26.88
2023-08-17T18:12:14.561Z,26.09
2023-08-17T18:27:16.199Z,25.65
2023-08-17T18:42:17.950Z,25.67
2023-08-17T18:57:19.635Z,25.75
2023-08-17T19:12:21.606Z,25.96
2023-08-17T19:27:23.476Z,25.58
2023-08-17T19:42:25.184Z,25.61
2023-08-17T19:57:27.029Z,25.84
2023-08-17T20:12:29.785Z,25.20
2023-08-17T20:27:31.478Z,25.50
2023-08-17T20:42:33.184Z,24.53
2023-08-17T20:57:34.911Z,24.40
2023-08-17T21:12:36.671Z,25.26
2023-08-17T21:27:39.716Z,26.07
2023-08-17T21:42:41.377Z,25.97
2023-08-17T21:57:43.179Z,25.73
2023-08-17T22:12:44.848Z,24.75
2023-08-17T22:27:46.939Z,25.32
2023-08-17T22:42:48.597Z,23.95
2023-08-17T22:57:50.252Z,25.27
2023-08-17T23:12:51.949Z,24.54
2023-08-17T23:27:53.712Z,23.25
2023-08-17T23:42:55.424Z,24.70
2023-08-17T23:57:57.152Z,24.12
